Time;durP1;ratioP1;P1;durP2;ratioP2;P2;SDS_P1;SDS_P2;PMS_P1;PMS_P2;Temp;Humidity;BMP_temperature;BMP_pressure;BME280_temperature;BME280_humidity;BME280_pressure;Samples;Min_cycle;Max_cycle;Signal;HPM_P1;HPM_P2
2021/12/21 00:00:31;;;;;;;12.83;5.77;;;;;;;-3.20;100.00;101092.38;4992086;28;20304;-62
2021/12/21 00:02:57;;;;;;;9.93;4.77;;;;;;;-3.27;99.34;101088.88;5011483;28;20175;-62
2021/12/21 00:05:27;;;;;;;9.73;5.10;;;;;;;-3.25;99.29;101091.44;5012985;28;20182;-63
2021/12/21 00:07:54;;;;;;;24.50;10.23;;;;;;;-3.30;99.34;101081.28;5012592;28;20705;-63
2021/12/21 00:10:21;;;;;;;15.07;7.80;;;;;;;-3.32;99.24;101079.56;5004820;28;20436;-63
2021/12/21 00:13:03;;;;;;;10.03;5.90;;;;;;;-3.35;99.27;101080.38;5015323;28;20426;-62
2021/12/21 00:18:15;;;;;;;11.70;5.50;;;;;;;-3.44;99.35;101075.16;5018998;28;20513;-63
2021/12/21 00:21:00;;;;;;;7.03;4.27;;;;;;;-3.57;100.00;101081.63;5007247;28;20996;-62
2021/12/21 00:25:54;;;;;;;9.17;4.80;;;;;;;-3.53;100.00;101080.03;5011662;28;20454;-62
2021/12/21 00:28:19;;;;;;;10.33;5.37;;;;;;;-3.52;100.00;101076.66;5012521;28;20468;-62
2021/12/21 00:30:44;;;;;;;9.20;4.90;;;;;;;-3.54;100.00;101070.78;4986917;28;20622;-62
2021/12/21 00:33:09;;;;;;;8.83;5.23;;;;;;;-3.53;99.83;101075.00;5022330;28;20174;-62
2021/12/21 00:35:35;;;;;;;7.73;4.33;;;;;;;-3.61;100.00;101069.78;5011673;28;20195;-62
2021/12/21 00:38:00;;;;;;;6.83;4.70;;;;;;;-3.67;100.00;101074.69;5010984;28;20579;-62
2021/12/21 00:40:26;;;;;;;8.80;4.53;;;;;;;-3.63;100.00;101072.28;5004876;28;20303;-63
2021/12/21 00:42:51;;;;;;;10.33;5.50;;;;;;;-3.65;100.00;101078.94;5013074;28;20186;-62
2021/12/21 00:45:16;;;;;;;8.67;4.70;;;;;;;-3.61;100.00;101075.69;4982039;28;20203;-62
2021/12/21 00:47:47;;;;;;;7.33;4.17;;;;;;;-3.63;99.94;101066.41;4973171;28;20208;-63
2021/12/21 00:50:16;;;;;;;10.20;4.70;;;;;;;-3.71;100.00;101075.47;5003469;28;20190;-62
2021/12/21 00:52:50;;;;;;;8.93;4.40;;;;;;;-3.73;99.91;101073.75;5003423;28;20427;-62
2021/12/21 00:55:16;;;;;;;8.57;4.67;;;;;;;-3.76;99.97;101063.66;4987360;28;20433;-62
2021/12/21 00:57:41;;;;;;;7.17;4.10;;;;;;;-3.78;99.87;101067.81;5012026;28;20421;-62
2021/12/21 01:00:09;;;;;;;10.27;5.00;;;;;;;-3.80;100.00;101064.41;4986169;28;20871;-62
2021/12/21 01:02:34;;;;;;;10.13;4.57;;;;;;;-3.74;99.89;101063.69;5018842;28;20294;-63
2021/12/21 01:05:00;;;;;;;7.30;5.27;;;;;;;-3.75;99.85;101050.25;5005924;28;20894;-63
2021/12/21 01:07:33;;;;;;;10.70;5.43;;;;;;;-3.81;100.00;101054.31;5011460;28;20198;-62
2021/12/21 01:10:30;;;;;;;11.27;5.13;;;;;;;-3.70;100.00;101047.00;5011516;28;20641;-62
2021/12/21 01:12:55;;;;;;;11.30;5.73;;;;;;;-3.74;100.00;101051.94;4989463;28;20513;-62
2021/12/21 01:18:01;;;;;;;8.70;4.97;;;;;;;-3.69;100.00;101046.19;5009839;28;20742;-62
2021/12/21 01:20:37;;;;;;;8.50;5.10;;;;;;;-3.78;100.00;101050.19;4992739;28;20942;-62
2021/12/21 01:28:43;;;;;;;15.07;5.33;;;;;;;-3.78;99.79;101050.19;4969301;28;20514;-62
2021/12/21 01:36:20;;;;;;;12.87;5.43;;;;;;;-4.00;99.74;101053.94;4969581;28;20849;-62
2021/12/21 01:39:00;;;;;;;8.93;4.90;;;;;;;-3.95;99.89;101044.84;4969316;28;20435;-62
2021/12/21 01:42:35;;;;;;;8.93;4.60;;;;;;;-3.99;99.72;101039.75;4946052;28;20499;-62
2021/12/21 01:49:51;;;;;;;7.23;4.57;;;;;;;-4.27;100.00;101045.00;4969387;28;20506;-62
2021/12/21 01:52:20;;;;;;;10.67;4.37;;;;;;;-4.29;100.00;101036.59;4955998;28;21011;-63
2021/12/21 01:54:46;;;;;;;9.80;5.07;;;;;;;-4.13;100.00;101037.78;4969319;28;20959;-63
2021/12/21 01:57:12;;;;;;;11.73;4.07;;;;;;;-4.04;100.00;101039.63;4969169;28;20473;-62
2021/12/21 01:59:38;;;;;;;9.17;4.57;;;;;;;-3.99;100.00;101039.75;4969180;28;20470;-62
2021/12/21 02:02:06;;;;;;;8.60;4.30;;;;;;;-4.05;100.00;101042.97;4985327;28;20253;-62
2021/12/21 02:04:32;;;;;;;7.43;3.43;;;;;;;-4.07;100.00;101037.03;5010610;28;20439;-62
2021/12/21 02:06:57;;;;;;;11.27;4.13;;;;;;;-4.07;100.00;101034.53;5010507;28;20465;-62
2021/12/21 02:09:28;;;;;;;9.53;4.47;;;;;;;-4.16;100.00;101039.38;5010624;28;20268;-62
2021/12/21 02:11:55;;;;;;;11.60;3.70;;;;;;;-4.08;100.00;101036.22;5000758;28;20226;-62
2021/12/21 02:14:20;;;;;;;7.27;4.20;;;;;;;-4.01;100.00;101031.31;5010114;28;20425;-62
2021/12/21 02:19:36;;;;;;;5.57;3.10;;;;;;;-4.10;100.00;101029.44;5010254;28;20536;-62
2021/12/21 02:22:15;;;;;;;9.97;3.50;;;;;;;-4.35;100.00;101025.56;5014914;28;21326;-62
2021/12/21 02:24:51;;;;;;;9.97;4.50;;;;;;;-4.31;100.00;101022.31;5010095;28;20429;-61
2021/12/21 02:27:28;;;;;;;5.97;3.60;;;;;;;-4.22;100.00;101028.38;5010111;28;20457;-61
2021/12/21 02:29:54;;;;;;;5.60;3.70;;;;;;;-4.21;100.00;101025.03;5010283;28;20623;-62
2021/12/21 02:32:22;;;;;;;5.97;3.47;;;;;;;-4.16;100.00;101025.13;5012674;28;20567;-63
2021/12/21 02:34:48;;;;;;;4.93;3.60;;;;;;;-4.19;100.00;101029.25;5010214;28;20281;-62
2021/12/21 02:37:13;;;;;;;6.57;3.57;;;;;;;-4.19;100.00;101015.03;5010056;28;20525;-62
2021/12/21 02:39:39;;;;;;;5.97;3.40;;;;;;;-4.23;100.00;101020.78;5010532;28;20628;-62
2021/12/21 02:42:06;;;;;;;5.87;3.37;;;;;;;-4.23;100.00;101019.16;5000183;28;20225;-62
2021/12/21 02:44:32;;;;;;;8.40;4.20;;;;;;;-4.22;100.00;101017.47;4997362;28;20244;-62
2021/12/21 02:46:57;;;;;;;12.57;4.40;;;;;;;-4.38;100.00;101011.28;5008568;28;20466;-62
2021/12/21 02:49:23;;;;;;;11.80;4.23;;;;;;;-4.47;100.00;101003.56;4992640;28;20521;-62
2021/12/21 02:51:49;;;;;;;7.20;3.50;;;;;;;-4.43;100.00;101006.16;4996250;28;20254;-62
2021/12/21 02:54:16;;;;;;;8.97;4.07;;;;;;;-4.29;100.00;101005.59;4996134;28;20214;-62
2021/12/21 02:56:42;;;;;;;5.33;3.10;;;;;;;-4.22;100.00;101007.41;4997340;28;20449;-62
2021/12/21 02:59:08;;;;;;;6.60;3.70;;;;;;;-4.18;100.00;101006.69;5010457;28;21166;-62
2021/12/21 03:01:34;;;;;;;7.93;4.20;;;;;;;-4.26;100.00;101005.66;4997635;28;20523;-62
2021/12/21 03:03:59;;;;;;;9.27;3.57;;;;;;;-4.21;100.00;101012.47;5012953;28;20593;-62
2021/12/21 03:12:11;;;;;;;5.90;3.90;;;;;;;-4.31;100.00;101009.75;5013323;28;20487;-62
2021/12/21 03:14:37;;;;;;;4.53;3.07;;;;;;;-4.30;100.00;101014.81;5010022;28;20472;-62
2021/12/21 03:17:03;;;;;;;8.10;3.73;;;;;;;-4.35;100.00;101010.47;5009666;28;20465;-62
2021/12/21 03:19:28;;;;;;;6.27;3.43;;;;;;;-4.38;100.00;101011.28;5010276;28;20182;-62
2021/12/21 03:21:53;;;;;;;4.97;3.40;;;;;;;-4.38;100.00;101011.28;5013410;28;20480;-63
2021/12/21 03:24:19;;;;;;;5.70;3.77;;;;;;;-4.39;100.00;101012.94;5009384;28;20265;-62
2021/12/21 03:26:44;;;;;;;5.93;3.20;;;;;;;-4.43;100.00;101011.19;4996617;28;20218;-62
2021/12/21 03:29:10;;;;;;;8.87;4.00;;;;;;;-4.40;100.00;101013.75;5000553;28;20191;-62
2021/12/21 03:31:35;;;;;;;6.03;3.27;;;;;;;-4.44;100.00;101011.13;5010286;28;20244;-62
2021/12/21 03:34:01;;;;;;;6.53;3.10;;;;;;;-4.50;100.00;101013.50;5011906;28;20616;-62
2021/12/21 03:36:26;;;;;;;6.27;3.50;;;;;;;-4.55;100.00;101014.28;5002306;28;20246;-62
2021/12/21 03:38:58;;;;;;;5.37;3.20;;;;;;;-4.62;100.00;101019.97;5005593;28;20178;-62
2021/12/21 03:41:24;;;;;;;5.60;3.37;;;;;;;-4.59;100.00;101015.03;5012047;28;20296;-62
2021/12/21 03:43:50;;;;;;;6.53;3.07;;;;;;;-4.59;100.00;101014.16;5018101;28;20452;-62
2021/12/21 03:46:16;;;;;;;7.93;3.50;;;;;;;-4.63;100.00;101008.22;5001669;28;20466;-62
2021/12/21 03:48:47;;;;;;;5.43;3.10;;;;;;;-4.60;100.00;101009.94;4993924;28;20198;-62
2021/12/21 03:51:15;;;;;;;4.30;2.73;;;;;;;-4.57;100.00;101015.06;5002142;28;20230;-62
2021/12/21 03:53:40;;;;;;;9.57;3.60;;;;;;;-4.55;100.00;101011.75;5012082;28;20715;-62
2021/12/21 03:56:38;;;;;;;5.47;3.20;;;;;;;-4.70;100.00;101013.94;5012572;28;20469;-62
2021/12/21 03:58:52;;;;;;;5.03;3.00;;;;;;;-4.63;100.00;101013.25;5012728;28;20202;-61
2021/12/21 04:01:18;;;;;;;6.57;3.30;;;;;;;-4.54;100.00;101017.63;4992499;28;21040;-62
2021/12/21 04:03:43;;;;;;;7.07;3.73;;;;;;;-4.53;100.00;101011.78;4989111;28;20423;-60
2021/12/21 04:06:08;;;;;;;6.57;3.53;;;;;;;-4.49;100.00;101002.66;4998879;28;20202;-61
2021/12/21 04:08:34;;;;;;;4.23;3.13;;;;;;;-4.58;100.00;101005.81;4993137;28;20584;-61
2021/12/21 04:11:00;;;;;;;8.70;4.10;;;;;;;-4.52;100.00;101007.63;4998910;28;20732;-61
2021/12/21 04:13:26;;;;;;;6.27;4.03;;;;;;;-4.51;100.00;101004.28;5013739;28;20533;-62
2021/12/21 04:15:53;;;;;;;9.53;3.80;;;;;;;-4.54;100.00;100995.88;5008832;28;20558;-62
2021/12/21 04:18:22;;;;;;;7.10;3.80;;;;;;;-4.60;100.00;100993.25;5021084;28;20446;-62
2021/12/21 04:20:48;;;;;;;6.13;3.57;;;;;;;-4.61;100.00;100988.19;5008233;28;20569;-62
2021/12/21 04:23:13;;;;;;;9.50;4.17;;;;;;;-4.64;100.00;101000.66;5021130;28;20975;-62
2021/12/21 04:25:39;;;;;;;7.67;3.93;;;;;;;-4.60;100.00;100995.75;5012181;28;20204;-62
2021/12/21 04:28:04;;;;;;;5.60;3.80;;;;;;;-4.61;100.00;101003.25;5012213;28;20199;-62
2021/12/21 04:30:29;;;;;;;6.57;3.67;;;;;;;-4.66;100.00;101000.63;4986176;28;20229;-62
2021/12/21 04:32:55;;;;;;;6.07;3.73;;;;;;;-4.62;100.00;100996.53;5005288;28;20175;-62
2021/12/21 04:35:21;;;;;;;5.93;3.93;;;;;;;-4.67;100.00;100995.59;5000020;28;20187;-62
2021/12/21 04:38:11;;;;;;;5.57;3.63;;;;;;;-4.74;100.00;100997.09;4992907;28;20251;-62
2021/12/21 04:40:42;;;;;;;5.27;3.60;;;;;;;-4.72;100.00;101001.34;4993192;28;20601;-62
2021/12/21 04:43:07;;;;;;;8.90;4.43;;;;;;;-4.73;100.00;100991.25;5004129;28;20424;-62
2021/12/21 04:45:32;;;;;;;5.90;3.73;;;;;;;-4.70;100.00;100999.72;5011817;28;20524;-62
2021/12/21 04:47:58;;;;;;;6.03;3.90;;;;;;;-4.67;100.00;101003.13;5011897;28;20233;-62
2021/12/21 04:50:23;;;;;;;11.43;4.40;;;;;;;-4.69;100.00;101003.06;5004445;28;20709;-62
2021/12/21 04:52:48;;;;;;;7.73;4.27;;;;;;;-4.74;100.00;101005.50;5024505;28;20178;-62
2021/12/21 04:55:14;;;;;;;7.10;4.30;;;;;;;-4.72;100.00;100998.81;5011758;28;20179;-62
2021/12/21 04:57:41;;;;;;;7.57;4.70;;;;;;;-4.71;100.00;100999.69;4997419;28;20565;-62
2021/12/21 05:00:08;;;;;;;8.30;4.63;;;;;;;-4.67;100.00;100998.09;4984551;28;20175;-62
2021/12/21 05:02:34;;;;;;;5.40;3.93;;;;;;;-4.70;100.00;100992.19;5025863;28;20436;-62
2021/12/21 05:04:59;;;;;;;7.03;4.47;;;;;;;-4.74;100.00;100997.97;5009826;28;20783;-62
2021/12/21 05:07:27;;;;;;;9.53;4.77;;;;;;;-4.78;100.00;100995.34;5011679;28;20198;-62
2021/12/21 05:09:57;;;;;;;9.33;4.50;;;;;;;-4.74;100.00;100992.94;5010424;28;20178;-61
2021/12/21 05:12:22;;;;;;;6.17;4.57;;;;;;;-4.76;100.00;100994.56;5015244;28;20480;-61
2021/12/21 05:14:49;;;;;;;7.37;4.87;;;;;;;-4.82;100.00;100994.41;5011267;28;20422;-61
2021/12/21 05:17:14;;;;;;;6.87;4.60;;;;;;;-4.80;100.00;100999.47;5011337;28;20198;-61
2021/12/21 05:19:39;;;;;;;8.60;4.93;;;;;;;-4.79;100.00;100999.50;5011574;28;21027;-61
2021/12/21 05:22:05;;;;;;;11.43;5.90;;;;;;;-4.75;100.00;101000.41;5008371;28;20226;-61
2021/12/21 05:24:30;;;;;;;9.70;5.73;;;;;;;-4.79;100.00;100996.16;5011026;28;20228;-61
2021/12/21 05:26:57;;;;;;;10.10;5.50;;;;;;;-4.82;100.00;100998.59;5011077;28;20583;-61
2021/12/21 05:29:23;;;;;;;12.57;5.70;;;;;;;-4.90;100.00;100996.75;5009695;28;20300;-61
2021/12/21 05:31:49;;;;;;;11.20;5.83;;;;;;;-4.84;100.00;101007.75;5012782;28;20503;-61
2021/12/21 05:34:14;;;;;;;10.83;5.73;;;;;;;-4.82;100.00;101006.97;4975761;28;20423;-61
2021/12/21 05:36:39;;;;;;;9.40;4.73;;;;;;;-4.81;100.00;101016.19;5000666;28;20199;-62
2021/12/21 05:39:14;;;;;;;9.93;5.03;;;;;;;-4.87;100.00;101009.38;4987542;28;20175;-61
2021/12/21 05:41:50;;;;;;;13.90;5.30;;;;;;;-4.87;100.00;101009.38;5009958;28;20280;-61
2021/12/21 05:44:16;;;;;;;6.20;4.33;;;;;;;-4.85;100.00;101014.41;5010182;28;20830;-61
2021/12/21 05:46:42;;;;;;;11.30;5.63;;;;;;;-4.82;100.00;101009.47;4996298;28;20548;-62
2021/12/21 05:49:07;;;;;;;10.50;6.33;;;;;;;-4.81;100.00;101002.78;4992598;28;20465;-61
2021/12/21 05:51:33;;;;;;;10.27;5.37;;;;;;;-4.88;100.00;101005.16;5005077;28;20236;-61
2021/12/21 05:53:58;;;;;;;8.60;5.60;;;;;;;-4.87;100.00;101006.00;5005124;28;20659;-62
2021/12/21 05:56:23;;;;;;;8.13;4.87;;;;;;;-4.86;100.00;101010.22;5010831;28;20265;-61
2021/12/21 05:58:49;;;;;;;8.93;4.97;;;;;;;-4.81;100.00;101011.19;5010395;28;20167;-61
2021/12/21 06:01:14;;;;;;;8.83;6.37;;;;;;;-4.82;100.00;101013.66;5009773;28;20226;-62
2021/12/21 06:03:40;;;;;;;12.80;6.67;;;;;;;-4.84;100.00;101005.22;5004032;28;20510;-61
2021/12/21 06:06:11;;;;;;;9.80;5.73;;;;;;;-4.84;100.00;101016.13;5010596;28;20194;-61
2021/12/21 06:08:36;;;;;;;13.57;6.13;;;;;;;-4.86;100.00;101013.56;5010860;28;20287;-61
2021/12/21 06:11:05;;;;;;;13.73;6.33;;;;;;;-4.99;100.00;101008.25;5002238;28;20865;-61
2021/12/21 06:16:26;;;;;;;10.13;6.33;;;;;;;-5.07;100.00;101013.91;4980926;28;20451;-61
2021/12/21 06:27:06;;;;;;;13.63;5.87;;;;;;;-4.88;100.00;101011.84;5007530;28;20476;-62
2021/12/21 06:29:31;;;;;;;13.63;6.30;;;;;;;-4.84;100.00;101015.28;5010562;28;20440;-62
2021/12/21 06:31:57;;;;;;;9.30;6.00;;;;;;;-4.88;100.00;101011.84;5010644;28;20226;-61
2021/12/21 06:34:22;;;;;;;12.47;6.67;;;;;;;-4.75;100.00;101007.94;4991410;28;20182;-61
2021/12/21 06:36:48;;;;;;;10.73;5.50;;;;;;;-4.79;100.00;101013.72;5007051;28;20195;-62
2021/12/21 06:39:13;;;;;;;11.70;6.27;;;;;;;-4.81;100.00;101020.34;5010141;28;20182;-60
2021/12/21 06:41:39;;;;;;;10.73;5.73;;;;;;;-4.81;100.00;101021.22;5012029;28;20218;-60
2021/12/21 06:44:05;;;;;;;10.40;5.30;;;;;;;-4.81;100.00;101023.72;5013059;28;20177;-60
2021/12/21 06:47:06;;;;;;;13.70;6.93;;;;;;;-4.81;100.00;101020.34;4998668;28;20256;-62
2021/12/21 06:52:16;;;;;;;13.33;6.20;;;;;;;-4.89;100.00;101026.06;5008390;28;20595;-62
2021/12/21 06:54:41;;;;;;;11.67;5.67;;;;;;;-4.86;100.00;101017.75;4971025;28;20416;-62
2021/12/21 06:57:07;;;;;;;11.63;5.97;;;;;;;-4.87;100.00;101026.09;5001592;28;20661;-60
2021/12/21 06:59:32;;;;;;;12.90;5.67;;;;;;;-4.85;100.00;101026.97;5008655;28;20186;-63
2021/12/21 07:01:58;;;;;;;15.97;5.67;;;;;;;-4.90;100.00;101029.38;5010888;28;20225;-63
2021/12/21 07:04:24;;;;;;;8.97;5.43;;;;;;;-4.87;100.00;101026.09;4972005;28;20184;-61
2021/12/21 07:06:51;;;;;;;10.33;6.27;;;;;;;-4.84;100.00;101026.16;4997369;28;20400;-61
2021/12/21 07:11:51;;;;;;;8.70;6.03;;;;;;;-4.86;100.00;101025.28;5003145;28;20579;-61
2021/12/21 07:19:44;;;;;;;12.87;6.50;;;;;;;-4.82;100.00;101022.03;5014129;28;20420;-61
2021/12/21 07:22:10;;;;;;;13.47;6.63;;;;;;;-4.86;100.00;101026.13;5017041;28;20480;-61
2021/12/21 07:24:36;;;;;;;10.30;6.30;;;;;;;-4.77;100.00;101028.00;5013500;28;20177;-63
2021/12/21 07:27:02;;;;;;;9.60;5.73;;;;;;;-4.73;100.00;101027.25;5012965;28;20206;-61
2021/12/21 07:29:27;;;;;;;10.77;6.30;;;;;;;-4.70;100.00;101032.34;5013590;28;20245;-61
2021/12/21 07:31:52;;;;;;;15.57;6.60;;;;;;;-4.67;100.00;101035.75;5016098;28;20474;-64
2021/12/21 07:34:18;;;;;;;12.33;5.93;;;;;;;-4.63;100.00;101040.03;5012862;28;20190;-62
2021/12/21 07:36:44;;;;;;;13.17;6.90;;;;;;;-4.64;100.00;101030.78;5011263;28;20234;-62
2021/12/21 07:39:17;;;;;;;9.50;5.90;;;;;;;-4.58;100.00;101040.97;5008054;28;20244;-63
2021/12/21 07:41:43;;;;;;;12.17;6.37;;;;;;;-4.55;100.00;101036.03;5014333;28;20485;-62
2021/12/21 07:44:09;;;;;;;12.17;6.63;;;;;;;-4.56;100.00;101039.34;4991272;28;20430;-62
2021/12/21 07:46:35;;;;;;;9.00;5.50;;;;;;;-4.49;100.00;101046.22;4993497;28;20430;-62
2021/12/21 07:49:01;;;;;;;13.30;6.67;;;;;;;-4.47;100.00;101041.22;5013092;28;20657;-62
2021/12/21 07:51:26;;;;;;;13.77;7.10;;;;;;;-4.46;100.00;101041.25;5013767;28;20480;-62
2021/12/21 07:53:52;;;;;;;12.37;6.63;;;;;;;-4.42;100.00;101032.97;5012711;28;20183;-62
2021/12/21 07:56:17;;;;;;;10.13;6.50;;;;;;;-4.34;100.00;101042.31;4993256;28;20680;-62
2021/12/21 07:58:45;;;;;;;14.33;6.40;;;;;;;-4.31;100.00;101043.25;5010870;28;20186;-62
2021/12/21 08:01:11;;;;;;;9.73;6.67;;;;;;;-4.27;100.00;101045.00;5000684;28;20229;-62
2021/12/21 08:03:37;;;;;;;15.33;7.03;;;;;;;-4.21;100.00;101051.84;4989672;28;20432;-61
2021/12/21 08:06:06;;;;;;;10.60;5.47;;;;;;;-4.16;100.00;101051.94;4999506;28;20826;-62
2021/12/21 08:08:34;;;;;;;14.00;6.20;;;;;;;-4.13;100.00;101050.34;4996535;28;20450;-62
2021/12/21 08:13:47;;;;;;;15.43;7.10;;;;;;;-4.03;100.00;101048.00;5012298;28;20417;-62
2021/12/21 08:16:13;;;;;;;11.07;6.10;;;;;;;-4.00;100.00;101040.53;5010439;28;20491;-63
2021/12/21 08:18:38;;;;;;;10.13;6.00;;;;;;;-3.94;100.00;101036.47;5018247;28;20417;-62
2021/12/21 08:21:04;;;;;;;13.13;6.50;;;;;;;-3.93;100.00;101047.38;5009314;28;20315;-62
2021/12/21 08:23:29;;;;;;;11.97;7.20;;;;;;;-3.86;100.00;101048.34;5013230;28;20230;-63
2021/12/21 08:25:56;;;;;;;10.10;6.50;;;;;;;-3.81;100.00;101044.25;4993790;28;20195;-62
2021/12/21 08:28:22;;;;;;;13.73;6.73;;;;;;;-3.79;100.00;101033.41;4992904;28;20281;-62
2021/12/21 08:30:47;;;;;;;10.07;7.27;;;;;;;-3.67;100.00;101036.97;4985296;28;20484;-62
2021/12/21 08:33:13;;;;;;;18.23;7.30;;;;;;;-3.62;100.00;101040.44;5021613;28;20428;-62
2021/12/21 08:35:39;;;;;;;19.07;7.13;;;;;;;-3.52;100.00;101033.91;5011803;28;20187;-62
2021/12/21 08:38:07;;;;;;;16.00;7.77;;;;;;;-3.42;100.00;101036.63;5011666;28;20644;-62
2021/12/21 08:40:39;;;;;;;17.87;7.73;;;;;;;-3.33;100.00;101035.94;5005754;28;20479;-62
2021/12/21 08:43:14;;;;;;;13.77;7.13;;;;;;;-3.29;100.00;101032.63;5022660;28;20922;-62
2021/12/21 08:45:42;;;;;;;12.30;7.10;;;;;;;-3.16;100.00;101026.16;5011627;28;20444;-62
2021/12/21 08:48:09;;;;;;;9.87;6.77;;;;;;;-3.08;100.00;101028.81;5011583;28;20472;-63
2021/12/21 08:50:36;;;;;;;16.33;6.17;;;;;;;-2.78;100.00;101038.53;5006363;28;20488;-62
2021/12/21 08:53:02;;;;;;;10.47;6.60;;;;;;;-2.31;100.00;101046.75;5020529;28;20426;-63
2021/12/21 08:55:28;;;;;;;16.73;6.97;;;;;;;-1.42;99.75;101036.88;5011461;28;20433;-63
2021/12/21 08:57:53;;;;;;;13.53;6.83;;;;;;;0.19;93.38;101043.00;5010816;28;20422;-63
2021/12/21 09:00:19;;;;;;;10.80;5.73;;;;;;;2.45;81.36;101036.81;5003884;28;20178;-63
2021/12/21 09:02:44;;;;;;;8.87;4.70;;;;;;;4.39;67.49;101039.19;5017446;28;20320;-63
2021/12/21 09:05:16;;;;;;;8.93;5.17;;;;;;;6.05;58.67;101031.28;5010605;28;20706;-63
2021/12/21 09:07:46;;;;;;;11.30;5.00;;;;;;;7.80;52.56;101034.72;5011239;28;20714;-63
2021/12/21 09:10:14;;;;;;;9.37;5.20;;;;;;;8.59;49.76;101035.03;5001131;28;20216;-64
2021/12/21 09:12:40;;;;;;;10.83;4.90;;;;;;;8.87;45.40;101038.38;5017111;28;20348;-64
2021/12/21 09:15:07;;;;;;;6.73;4.03;;;;;;;8.92;45.89;101030.53;5009900;28;20178;-63
2021/12/21 09:17:34;;;;;;;6.00;4.30;;;;;;;8.87;45.14;101035.00;4990532;28;20191;-63
2021/12/21 09:19:59;;;;;;;6.43;4.60;;;;;;;8.56;45.05;101047.03;5002304;28;20237;-63
2021/12/21 09:22:25;;;;;;;11.40;4.37;;;;;;;7.69;47.27;101043.56;5015726;28;20710;-64
2021/12/21 09:24:51;;;;;;;8.43;4.50;;;;;;;6.58;49.13;101041.19;5009506;28;20651;-63
2021/12/21 09:27:16;;;;;;;7.00;4.10;;;;;;;4.15;55.78;101053.06;5004619;28;20607;-63
2021/12/21 09:29:43;;;;;;;7.23;4.47;;;;;;;2.96;60.29;101051.72;4991744;28;20195;-63
2021/12/21 09:32:13;;;;;;;7.60;4.33;;;;;;;2.18;63.91;101051.34;5008339;28;20230;-62
2021/12/21 09:34:42;;;;;;;5.43;3.90;;;;;;;0.72;69.24;101059.16;5010609;28;20199;-62
2021/12/21 09:37:14;;;;;;;11.23;5.63;;;;;;;-0.28;75.08;101058.81;5011270;28;20198;-62
2021/12/21 09:39:44;;;;;;;8.90;4.30;;;;;;;-0.39;77.70;101053.69;5010970;28;20181;-63
2021/12/21 09:42:13;;;;;;;7.80;5.03;;;;;;;-0.57;79.59;101049.34;5016372;28;20222;-62
2021/12/21 09:44:38;;;;;;;10.47;3.80;;;;;;;-0.89;81.74;101053.34;4994724;28;20176;-62
2021/12/21 09:47:06;;;;;;;9.63;4.60;;;;;;;-0.85;82.82;101049.97;4992544;28;20203;-62
2021/12/21 09:49:32;;;;;;;10.03;5.33;;;;;;;-0.80;82.56;101046.66;5006937;28;20182;-63
2021/12/21 09:51:57;;;;;;;13.10;5.13;;;;;;;-0.40;82.61;101046.94;5012404;28;20317;-62
2021/12/21 09:54:25;;;;;;;7.83;4.30;;;;;;;0.67;77.66;101044.78;5011063;28;20643;-61
2021/12/21 09:56:50;;;;;;;8.10;4.73;;;;;;;2.33;69.67;101042.81;5010421;28;21553;-63
2021/12/21 09:59:15;;;;;;;10.03;4.40;;;;;;;2.61;65.32;101042.66;5010908;28;20191;-63
2021/12/21 10:01:40;;;;;;;8.50;4.67;;;;;;;3.25;63.04;101040.47;5011414;28;20375;-62
2021/12/21 10:04:06;;;;;;;6.40;4.87;;;;;;;2.70;63.56;101034.97;5009542;28;20675;-62
2021/12/21 10:06:42;;;;;;;7.37;4.77;;;;;;;2.41;64.38;101033.47;5010303;28;20206;-62
2021/12/21 10:09:08;;;;;;;6.77;4.63;;;;;;;2.05;66.79;101032.78;5011089;28;20707;-63
2021/12/21 10:11:42;;;;;;;6.73;4.87;;;;;;;0.76;70.98;101039.75;5012157;28;20317;-63
2021/12/21 10:14:08;;;;;;;8.33;6.00;;;;;;;0.35;75.68;101038.81;5012587;28;20710;-62
2021/12/21 10:16:33;;;;;;;8.60;5.40;;;;;;;0.53;76.24;101032.13;5010714;28;20206;-62
2021/12/21 10:18:59;;;;;;;11.87;5.93;;;;;;;0.34;76.68;101027.00;5010917;28;20625;-63
2021/12/21 10:21:24;;;;;;;9.17;5.30;;;;;;;0.27;77.94;101025.28;5010639;28;20286;-63
2021/12/21 10:23:51;;;;;;;13.10;6.00;;;;;;;0.11;78.40;101024.41;4995938;28;20176;-62
2021/12/21 10:26:23;;;;;;;9.37;5.53;;;;;;;-0.11;79.93;101026.00;4999411;28;20209;-62
2021/12/21 10:28:51;;;;;;;10.80;5.33;;;;;;;-0.26;81.23;101027.63;5000755;28;20310;-63
2021/12/21 10:31:27;;;;;;;11.40;5.63;;;;;;;-0.19;81.04;101028.50;4999312;28;20233;-63
2021/12/21 10:33:54;;;;;;;8.87;5.27;;;;;;;-0.25;81.28;101019.22;5014272;28;20229;-62
2021/12/21 10:36:20;;;;;;;8.10;5.33;;;;;;;-0.23;81.74;101026.78;5010736;28;20209;-63
2021/12/21 10:38:51;;;;;;;10.77;5.47;;;;;;;-0.21;81.41;101022.56;5010626;28;20195;-63
2021/12/21 10:41:20;;;;;;;13.17;5.40;;;;;;;-0.04;81.35;101030.25;5008319;28;20241;-62
2021/12/21 10:44:05;;;;;;;12.83;5.00;;;;;;;-0.25;80.33;101029.31;5016823;28;20258;-62
2021/12/21 10:46:33;;;;;;;7.43;3.93;;;;;;;-0.35;80.96;101025.91;4975676;28;20208;-61
2021/12/21 10:49:17;;;;;;;8.10;5.00;;;;;;;-0.30;81.80;101025.06;4984246;28;20294;-62
2021/12/21 10:51:57;;;;;;;9.17;5.17;;;;;;;-0.25;81.11;101021.75;4999392;28;20221;-63
2021/12/21 10:54:34;;;;;;;10.43;5.17;;;;;;;-0.19;80.91;101021.78;5013743;28;20194;-62
2021/12/21 10:57:02;;;;;;;9.83;5.80;;;;;;;-0.23;81.14;101019.22;5014072;28;20285;-62
2021/12/21 10:59:30;;;;;;;10.70;5.30;;;;;;;0.02;81.02;101014.25;5014095;28;20213;-62
2021/12/21 11:02:05;;;;;;;9.53;5.40;;;;;;;0.03;80.71;101015.94;5006350;28;20369;-62
2021/12/21 11:04:46;;;;;;;9.43;4.90;;;;;;;0.16;80.81;101015.13;4982971;28;20262;-62
2021/12/21 11:10:15;;;;;;;11.43;5.27;;;;;;;0.29;81.04;101011.81;5004413;28;20671;-62
2021/12/21 11:12:52;;;;;;;13.77;6.10;;;;;;;0.32;80.13;101009.28;5023597;28;20526;-62
2021/12/21 11:15:28;;;;;;;10.70;5.23;;;;;;;0.30;79.56;101002.53;5003632;28;20650;-62
2021/12/21 11:17:53;;;;;;;7.77;5.57;;;;;;;0.23;80.25;100998.31;5006926;28;20203;-63
2021/12/21 11:20:18;;;;;;;9.77;4.77;;;;;;;0.24;79.75;100998.28;4987781;28;20207;-62
2021/12/21 11:22:44;;;;;;;10.27;5.30;;;;;;;0.29;79.53;100989.03;5021487;28;20178;-62
2021/12/21 11:25:12;;;;;;;6.70;5.33;;;;;;;0.38;79.98;100992.44;5013161;28;20624;-62
2021/12/21 11:27:40;;;;;;;11.90;4.93;;;;;;;0.42;79.91;100989.91;5013495;28;20651;-62
2021/12/21 11:30:08;;;;;;;8.37;4.90;;;;;;;0.56;80.07;100987.38;5004245;28;20274;-63
2021/12/21 11:32:39;;;;;;;8.10;5.20;;;;;;;0.85;78.88;100983.19;5022920;28;20194;-62
2021/12/21 11:37:20;;;;;;;11.13;6.20;;;;;;;0.85;77.68;100983.19;5011898;28;20221;-62
2021/12/21 11:37:56;;;;;;;18.27;5.30;;;;;;;0.69;77.41;100974.75;5002209;28;20241;-62
2021/12/21 11:40:25;;;;;;;9.40;5.20;;;;;;;0.71;77.28;100985.69;4989066;28;20660;-63
2021/12/21 11:42:50;;;;;;;10.93;5.10;;;;;;;0.61;77.41;100978.09;5021568;28;20190;-61
2021/12/21 11:45:18;;;;;;;8.80;5.33;;;;;;;0.49;77.88;100985.69;5012788;28;20186;-62
2021/12/21 11:47:59;;;;;;;7.37;5.33;;;;;;;0.56;78.14;100977.25;5013015;28;20190;-63
2021/12/21 11:50:25;;;;;;;11.70;5.73;;;;;;;0.56;77.54;100977.25;5006030;28;20791;-62
2021/12/21 11:52:54;;;;;;;11.63;5.60;;;;;;;0.69;77.83;100983.16;5023591;28;20694;-61
2021/12/21 11:55:23;;;;;;;11.63;5.60;;;;;;;0.75;77.70;100978.09;5010790;28;20198;-63
2021/12/21 11:57:51;;;;;;;11.70;6.77;;;;;;;0.81;77.28;100967.16;5011958;28;20163;-63
2021/12/21 12:00:19;;;;;;;8.70;5.60;;;;;;;0.94;76.84;100966.28;4994480;28;20182;-62
2021/12/21 12:02:46;;;;;;;6.40;4.67;;;;;;;0.87;75.86;100968.81;5019487;28;20204;-63
2021/12/21 12:05:28;;;;;;;6.10;4.50;;;;;;;0.87;76.05;100964.59;5011345;28;20707;-62
2021/12/21 12:08:05;;;;;;;8.87;4.77;;;;;;;0.98;75.39;100966.28;4993695;28;20654;-62
2021/12/21 12:10:33;;;;;;;9.93;4.87;;;;;;;1.12;75.33;100965.41;4990706;28;20784;-62
2021/12/21 12:13:12;;;;;;;7.77;4.77;;;;;;;0.98;73.83;100963.75;5003027;28;20176;-62
2021/12/21 12:15:44;;;;;;;7.03;4.53;;;;;;;0.92;74.90;100967.16;4984357;28;20229;-62
2021/12/21 12:18:47;;;;;;;9.27;4.90;;;;;;;0.98;74.59;100962.06;5011652;28;20198;-63
2021/12/21 12:21:25;;;;;;;10.77;5.00;;;;;;;1.06;74.67;100955.28;4951296;28;20278;-63
2021/12/21 12:23:55;;;;;;;6.83;4.30;;;;;;;1.15;74.10;100954.44;4969969;28;20233;-62